sensor_id;sensor_type;location;lat;lon;timestamp;P1;durP1;ratioP1;P2;durP2;ratioP2
3967;SDS011;9221;42.646;23.380;2024-02-21T00:00:12;6.00;;;3.00;;
3967;SDS011;9221;42.646;23.380;2024-02-21T00:02:38;9.20;;;3.67;;
3967;SDS011;9221;42.646;23.380;2024-02-21T00:05:04;9.37;;;3.90;;
3967;SDS011;9221;42.646;23.380;2024-02-21T00:07:29;7.10;;;3.47;;
3967;SDS011;9221;42.646;23.380;2024-02-21T00:09:55;8.00;;;3.47;;
3967;SDS011;9221;42.646;23.380;2024-02-21T00:12:21;9.30;;;3.60;;
3967;SDS011;9221;42.646;23.380;2024-02-21T00:14:46;9.60;;;3.80;;
3967;SDS011;9221;42.646;23.380;2024-02-21T00:17:12;9.00;;;3.30;;
3967;SDS011;9221;42.646;23.380;2024-02-21T00:19:37;9.33;;;3.30;;
3967;SDS011;9221;42.646;23.380;2024-02-21T00:22:03;11.60;;;4.30;;
3967;SDS011;9221;42.646;23.380;2024-02-21T00:24:29;7.07;;;3.20;;
3967;SDS011;9221;42.646;23.380;2024-02-21T00:26:54;8.73;;;3.50;;
3967;SDS011;9221;42.646;23.380;2024-02-21T00:29:20;10.70;;;3.43;;
3967;SDS011;9221;42.646;23.380;2024-02-21T00:31:45;8.90;;;3.60;;
3967;SDS011;9221;42.646;23.380;2024-02-21T00:34:11;6.70;;;3.00;;
3967;SDS011;9221;42.646;23.380;2024-02-21T00:36:37;8.53;;;3.20;;
3967;SDS011;9221;42.646;23.380;2024-02-21T00:39:03;10.57;;;3.90;;
3967;SDS011;9221;42.646;23.380;2024-02-21T00:41:29;7.33;;;3.20;;
3967;SDS011;9221;42.646;23.380;2024-02-21T00:43:54;9.23;;;3.70;;
3967;SDS011;9221;42.646;23.380;2024-02-21T00:46:20;7.93;;;3.40;;
3967;SDS011;9221;42.646;23.380;2024-02-21T00:48:45;10.30;;;3.90;;
3967;SDS011;9221;42.646;23.380;2024-02-21T00:51:11;8.97;;;3.50;;
3967;SDS011;9221;42.646;23.380;2024-02-21T00:53:36;7.13;;;2.80;;
3967;SDS011;9221;42.646;23.380;2024-02-21T00:56:04;9.83;;;4.00;;
3967;SDS011;9221;42.646;23.380;2024-02-21T00:58:30;9.97;;;3.87;;
3967;SDS011;9221;42.646;23.380;2024-02-21T01:00:56;12.93;;;3.70;;
3967;SDS011;9221;42.646;23.380;2024-02-21T01:03:21;6.93;;;3.20;;
3967;SDS011;9221;42.646;23.380;2024-02-21T01:05:47;8.70;;;3.10;;
3967;SDS011;9221;42.646;23.380;2024-02-21T01:08:12;7.93;;;3.43;;
3967;SDS011;9221;42.646;23.380;2024-02-21T01:10:38;8.67;;;3.13;;
3967;SDS011;9221;42.646;23.380;2024-02-21T01:13:03;7.00;;;2.77;;
3967;SDS011;9221;42.646;23.380;2024-02-21T01:15:28;7.63;;;2.90;;
3967;SDS011;9221;42.646;23.380;2024-02-21T01:17:54;6.70;;;2.47;;
3967;SDS011;9221;42.646;23.380;2024-02-21T01:20:20;7.80;;;3.30;;
3967;SDS011;9221;42.646;23.380;2024-02-21T01:22:46;9.10;;;3.57;;
3967;SDS011;9221;42.646;23.380;2024-02-21T01:25:12;10.77;;;4.33;;
3967;SDS011;9221;42.646;23.380;2024-02-21T01:27:37;9.10;;;3.67;;
3967;SDS011;9221;42.646;23.380;2024-02-21T01:30:03;10.00;;;3.67;;
3967;SDS011;9221;42.646;23.380;2024-02-21T01:32:29;9.90;;;3.77;;
3967;SDS011;9221;42.646;23.380;2024-02-21T01:34:54;11.27;;;3.67;;
3967;SDS011;9221;42.646;23.380;2024-02-21T01:37:20;9.70;;;3.87;;
3967;SDS011;9221;42.646;23.380;2024-02-21T01:39:45;8.97;;;3.23;;
3967;SDS011;9221;42.646;23.380;2024-02-21T01:42:10;5.73;;;2.90;;
3967;SDS011;9221;42.646;23.380;2024-02-21T01:44:36;10.43;;;3.83;;
3967;SDS011;9221;42.646;23.380;2024-02-21T01:47:03;15.13;;;4.60;;
3967;SDS011;9221;42.646;23.380;2024-02-21T01:49:28;8.37;;;3.80;;
3967;SDS011;9221;42.646;23.380;2024-02-21T01:51:55;7.33;;;3.50;;
3967;SDS011;9221;42.646;23.380;2024-02-21T01:54:21;10.93;;;4.53;;
3967;SDS011;9221;42.646;23.380;2024-02-21T01:56:47;10.33;;;4.10;;
3967;SDS011;9221;42.646;23.380;2024-02-21T01:59:13;7.30;;;3.53;;
3967;SDS011;9221;42.646;23.380;2024-02-21T02:01:41;10.13;;;4.10;;
3967;SDS011;9221;42.646;23.380;2024-02-21T02:04:06;12.40;;;4.50;;
3967;SDS011;9221;42.646;23.380;2024-02-21T02:06:33;12.00;;;4.57;;
3967;SDS011;9221;42.646;23.380;2024-02-21T02:08:59;11.20;;;4.30;;
3967;SDS011;9221;42.646;23.380;2024-02-21T02:11:25;9.47;;;4.40;;
3967;SDS011;9221;42.646;23.380;2024-02-21T02:13:50;11.17;;;4.13;;
3967;SDS011;9221;42.646;23.380;2024-02-21T02:16:16;10.03;;;4.63;;
3967;SDS011;9221;42.646;23.380;2024-02-21T02:18:41;13.73;;;5.03;;
3967;SDS011;9221;42.646;23.380;2024-02-21T02:21:09;14.77;;;4.93;;
3967;SDS011;9221;42.646;23.380;2024-02-21T02:23:42;14.30;;;4.63;;
3967;SDS011;9221;42.646;23.380;2024-02-21T02:26:07;16.17;;;6.27;;
3967;SDS011;9221;42.646;23.380;2024-02-21T02:28:33;14.93;;;5.70;;
3967;SDS011;9221;42.646;23.380;2024-02-21T02:30:58;15.73;;;5.60;;
3967;SDS011;9221;42.646;23.380;2024-02-21T02:33:24;21.20;;;6.53;;
3967;SDS011;9221;42.646;23.380;2024-02-21T02:35:49;16.50;;;6.00;;
3967;SDS011;9221;42.646;23.380;2024-02-21T02:38:15;17.50;;;5.43;;
3967;SDS011;9221;42.646;23.380;2024-02-21T02:40:41;14.77;;;5.70;;
3967;SDS011;9221;42.646;23.380;2024-02-21T02:43:07;19.33;;;6.57;;
3967;SDS011;9221;42.646;23.380;2024-02-21T02:45:32;20.53;;;6.83;;
3967;SDS011;9221;42.646;23.380;2024-02-21T02:47:58;17.30;;;6.80;;
3967;SDS011;9221;42.646;23.380;2024-02-21T02:50:24;17.57;;;5.57;;
3967;SDS011;9221;42.646;23.380;2024-02-21T02:52:51;18.23;;;6.60;;
3967;SDS011;9221;42.646;23.380;2024-02-21T02:55:17;14.13;;;5.40;;
3967;SDS011;9221;42.646;23.380;2024-02-21T02:57:43;19.37;;;7.13;;
3967;SDS011;9221;42.646;23.380;2024-02-21T03:00:12;16.23;;;6.10;;
3967;SDS011;9221;42.646;23.380;2024-02-21T03:02:39;13.37;;;5.37;;
3967;SDS011;9221;42.646;23.380;2024-02-21T03:07:42;15.80;;;6.90;;
3967;SDS011;9221;42.646;23.380;2024-02-21T03:10:08;16.40;;;6.33;;
3967;SDS011;9221;42.646;23.380;2024-02-21T03:12:34;18.13;;;6.87;;
3967;SDS011;9221;42.646;23.380;2024-02-21T03:15:00;17.60;;;7.10;;
3967;SDS011;9221;42.646;23.380;2024-02-21T03:17:26;17.30;;;7.10;;
3967;SDS011;9221;42.646;23.380;2024-02-21T03:19:54;15.83;;;6.20;;
3967;SDS011;9221;42.646;23.380;2024-02-21T03:22:23;19.17;;;7.40;;
3967;SDS011;9221;42.646;23.380;2024-02-21T03:24:49;16.70;;;6.50;;
3967;SDS011;9221;42.646;23.380;2024-02-21T03:27:14;15.20;;;5.80;;
3967;SDS011;9221;42.646;23.380;2024-02-21T03:29:40;17.27;;;6.50;;
3967;SDS011;9221;42.646;23.380;2024-02-21T03:32:05;16.37;;;6.57;;
3967;SDS011;9221;42.646;23.380;2024-02-21T03:34:31;17.47;;;6.53;;
3967;SDS011;9221;42.646;23.380;2024-02-21T03:36:56;16.20;;;6.83;;
3967;SDS011;9221;42.646;23.380;2024-02-21T03:39:22;17.30;;;7.10;;
3967;SDS011;9221;42.646;23.380;2024-02-21T03:41:48;21.00;;;7.20;;
3967;SDS011;9221;42.646;23.380;2024-02-21T03:44:13;18.77;;;7.13;;
3967;SDS011;9221;42.646;23.380;2024-02-21T03:46:39;14.20;;;5.77;;
3967;SDS011;9221;42.646;23.380;2024-02-21T03:49:05;15.93;;;6.47;;
3967;SDS011;9221;42.646;23.380;2024-02-21T03:51:30;18.80;;;6.23;;
3967;SDS011;9221;42.646;23.380;2024-02-21T03:53:56;19.13;;;7.00;;
3967;SDS011;9221;42.646;23.380;2024-02-21T03:56:21;22.00;;;7.33;;
3967;SDS011;9221;42.646;23.380;2024-02-21T03:58:47;22.90;;;6.23;;
3967;SDS011;9221;42.646;23.380;2024-02-21T04:01:14;16.23;;;7.07;;
3967;SDS011;9221;42.646;23.380;2024-02-21T04:03:40;19.10;;;7.13;;
3967;SDS011;9221;42.646;23.380;2024-02-21T04:06:06;16.70;;;6.53;;
3967;SDS011;9221;42.646;23.380;2024-02-21T04:08:32;15.83;;;6.13;;
3967;SDS011;9221;42.646;23.380;2024-02-21T04:10:57;23.93;;;8.10;;
3967;SDS011;9221;42.646;23.380;2024-02-21T04:13:23;20.90;;;7.70;;
3967;SDS011;9221;42.646;23.380;2024-02-21T04:15:49;20.20;;;7.33;;
3967;SDS011;9221;42.646;23.380;2024-02-21T04:18:14;18.43;;;7.20;;
3967;SDS011;9221;42.646;23.380;2024-02-21T04:20:40;20.30;;;7.13;;
3967;SDS011;9221;42.646;23.380;2024-02-21T04:23:05;18.00;;;7.23;;
3967;SDS011;9221;42.646;23.380;2024-02-21T04:25:31;19.93;;;7.20;;
3967;SDS011;9221;42.646;23.380;2024-02-21T04:27:56;17.60;;;6.80;;
3967;SDS011;9221;42.646;23.380;2024-02-21T04:30:22;18.63;;;6.90;;
3967;SDS011;9221;42.646;23.380;2024-02-21T04:32:47;18.27;;;7.10;;
3967;SDS011;9221;42.646;23.380;2024-02-21T04:35:13;22.10;;;7.10;;
3967;SDS011;9221;42.646;23.380;2024-02-21T04:37:38;36.20;;;7.60;;
3967;SDS011;9221;42.646;23.380;2024-02-21T04:40:04;18.20;;;7.20;;
3967;SDS011;9221;42.646;23.380;2024-02-21T04:42:29;21.60;;;7.40;;
3967;SDS011;9221;42.646;23.380;2024-02-21T04:44:55;21.40;;;8.30;;
3967;SDS011;9221;42.646;23.380;2024-02-21T04:47:20;18.60;;;7.70;;
3967;SDS011;9221;42.646;23.380;2024-02-21T04:49:46;19.43;;;7.30;;
3967;SDS011;9221;42.646;23.380;2024-02-21T04:52:11;27.63;;;8.47;;
3967;SDS011;9221;42.646;23.380;2024-02-21T04:54:37;21.10;;;8.00;;
3967;SDS011;9221;42.646;23.380;2024-02-21T04:57:03;21.33;;;8.37;;
3967;SDS011;9221;42.646;23.380;2024-02-21T04:59:28;24.03;;;8.07;;
3967;SDS011;9221;42.646;23.380;2024-02-21T05:01:54;20.30;;;8.10;;
3967;SDS011;9221;42.646;23.380;2024-02-21T05:04:20;24.30;;;8.47;;
3967;SDS011;9221;42.646;23.380;2024-02-21T05:06:45;21.93;;;7.80;;
3967;SDS011;9221;42.646;23.380;2024-02-21T05:09:11;26.67;;;8.00;;
3967;SDS011;9221;42.646;23.380;2024-02-21T05:11:37;22.20;;;8.73;;
3967;SDS011;9221;42.646;23.380;2024-02-21T05:14:03;15.07;;;6.47;;
3967;SDS011;9221;42.646;23.380;2024-02-21T05:16:29;23.20;;;8.70;;
3967;SDS011;9221;42.646;23.380;2024-02-21T05:18:55;17.37;;;7.53;;
3967;SDS011;9221;42.646;23.380;2024-02-21T05:21:22;18.43;;;7.83;;
3967;SDS011;9221;42.646;23.380;2024-02-21T05:23:49;23.50;;;8.33;;
3967;SDS011;9221;42.646;23.380;2024-02-21T05:26:21;19.23;;;7.50;;
3967;SDS011;9221;42.646;23.380;2024-02-21T05:28:47;21.37;;;7.97;;
3967;SDS011;9221;42.646;23.380;2024-02-21T05:31:13;19.33;;;6.90;;
3967;SDS011;9221;42.646;23.380;2024-02-21T05:33:39;23.63;;;8.07;;
3967;SDS011;9221;42.646;23.380;2024-02-21T05:36:05;24.00;;;8.20;;
3967;SDS011;9221;42.646;23.380;2024-02-21T05:38:31;20.27;;;7.97;;
3967;SDS011;9221;42.646;23.380;2024-02-21T05:40:56;23.27;;;7.67;;
3967;SDS011;9221;42.646;23.380;2024-02-21T05:43:22;18.33;;;7.40;;
3967;SDS011;9221;42.646;23.380;2024-02-21T05:45:47;22.97;;;8.30;;
3967;SDS011;9221;42.646;23.380;2024-02-21T05:48:13;20.77;;;7.80;;
3967;SDS011;9221;42.646;23.380;2024-02-21T05:50:39;17.97;;;7.17;;
3967;SDS011;9221;42.646;23.380;2024-02-21T05:53:04;26.13;;;9.03;;
3967;SDS011;9221;42.646;23.380;2024-02-21T05:55:30;27.97;;;9.00;;
3967;SDS011;9221;42.646;23.380;2024-02-21T05:57:55;25.03;;;9.10;;
3967;SDS011;9221;42.646;23.380;2024-02-21T06:00:21;23.13;;;7.93;;
3967;SDS011;9221;42.646;23.380;2024-02-21T06:02:46;23.33;;;8.80;;
3967;SDS011;9221;42.646;23.380;2024-02-21T06:05:12;21.17;;;7.90;;
3967;SDS011;9221;42.646;23.380;2024-02-21T06:07:38;28.27;;;8.73;;
3967;SDS011;9221;42.646;23.380;2024-02-21T06:10:04;21.23;;;8.30;;
3967;SDS011;9221;42.646;23.380;2024-02-21T06:12:30;16.47;;;7.30;;
3967;SDS011;9221;42.646;23.380;2024-02-21T06:14:55;19.77;;;8.13;;
3967;SDS011;9221;42.646;23.380;2024-02-21T06:17:21;29.93;;;9.60;;
3967;SDS011;9221;42.646;23.380;2024-02-21T06:19:46;21.87;;;9.00;;
3967;SDS011;9221;42.646;23.380;2024-02-21T06:22:12;19.57;;;7.93;;
3967;SDS011;9221;42.646;23.380;2024-02-21T06:24:37;25.40;;;8.77;;
3967;SDS011;9221;42.646;23.380;2024-02-21T06:27:06;30.10;;;11.10;;
3967;SDS011;9221;42.646;23.380;2024-02-21T06:29:32;26.50;;;9.40;;
3967;SDS011;9221;42.646;23.380;2024-02-21T06:31:58;27.13;;;9.63;;
3967;SDS011;9221;42.646;23.380;2024-02-21T06:34:24;22.20;;;8.10;;
3967;SDS011;9221;42.646;23.380;2024-02-21T06:36:50;26.00;;;9.47;;
3967;SDS011;9221;42.646;23.380;2024-02-21T06:39:15;21.30;;;8.30;;
3967;SDS011;9221;42.646;23.380;2024-02-21T06:41:43;24.23;;;8.80;;
3967;SDS011;9221;42.646;23.380;2024-02-21T06:44:09;25.33;;;9.40;;
3967;SDS011;9221;42.646;23.380;2024-02-21T06:46:34;23.10;;;8.27;;
3967;SDS011;9221;42.646;23.380;2024-02-21T06:49:01;24.10;;;8.73;;
3967;SDS011;9221;42.646;23.380;2024-02-21T06:51:29;19.20;;;7.73;;
3967;SDS011;9221;42.646;23.380;2024-02-21T06:53:54;22.17;;;8.03;;
3967;SDS011;9221;42.646;23.380;2024-02-21T06:56:20;23.67;;;9.50;;
3967;SDS011;9221;42.646;23.380;2024-02-21T06:58:51;22.57;;;8.50;;
3967;SDS011;9221;42.646;23.380;2024-02-21T07:01:17;29.13;;;9.07;;
3967;SDS011;9221;42.646;23.380;2024-02-21T07:03:43;29.10;;;10.07;;
3967;SDS011;9221;42.646;23.380;2024-02-21T07:06:08;30.67;;;10.50;;
3967;SDS011;9221;42.646;23.380;2024-02-21T07:08:34;25.63;;;9.43;;
3967;SDS011;9221;42.646;23.380;2024-02-21T07:10:59;27.40;;;9.77;;
3967;SDS011;9221;42.646;23.380;2024-02-21T07:13:25;31.00;;;10.40;;
3967;SDS011;9221;42.646;23.380;2024-02-21T07:15:50;33.00;;;11.70;;
3967;SDS011;9221;42.646;23.380;2024-02-21T07:18:16;25.20;;;10.40;;
3967;SDS011;9221;42.646;23.380;2024-02-21T07:20:41;23.57;;;10.30;;
3967;SDS011;9221;42.646;23.380;2024-02-21T07:23:08;35.60;;;12.20;;
3967;SDS011;9221;42.646;23.380;2024-02-21T07:25:33;32.03;;;10.70;;
3967;SDS011;9221;42.646;23.380;2024-02-21T07:27:59;31.10;;;10.87;;
3967;SDS011;9221;42.646;23.380;2024-02-21T07:30:25;28.60;;;10.27;;
3967;SDS011;9221;42.646;23.380;2024-02-21T07:32:50;30.40;;;10.73;;
3967;SDS011;9221;42.646;23.380;2024-02-21T07:35:17;29.13;;;10.00;;
3967;SDS011;9221;42.646;23.380;2024-02-21T07:37:42;29.43;;;9.63;;
3967;SDS011;9221;42.646;23.380;2024-02-21T07:40:14;30.40;;;11.10;;
3967;SDS011;9221;42.646;23.380;2024-02-21T07:42:41;29.03;;;10.83;;
3967;SDS011;9221;42.646;23.380;2024-02-21T07:45:08;28.47;;;10.60;;
3967;SDS011;9221;42.646;23.380;2024-02-21T07:47:35;32.67;;;10.00;;
3967;SDS011;9221;42.646;23.380;2024-02-21T07:50:01;37.83;;;11.37;;
3967;SDS011;9221;42.646;23.380;2024-02-21T07:52:27;29.07;;;10.07;;
3967;SDS011;9221;42.646;23.380;2024-02-21T07:54:53;29.83;;;10.83;;
3967;SDS011;9221;42.646;23.380;2024-02-21T07:57:18;32.00;;;10.40;;
3967;SDS011;9221;42.646;23.380;2024-02-21T07:59:44;34.20;;;11.60;;
3967;SDS011;9221;42.646;23.380;2024-02-21T08:02:09;27.43;;;9.77;;
3967;SDS011;9221;42.646;23.380;2024-02-21T08:04:35;31.03;;;11.57;;
3967;SDS011;9221;42.646;23.380;2024-02-21T08:07:00;25.80;;;9.47;;
3967;SDS011;9221;42.646;23.380;2024-02-21T08:09:27;31.03;;;9.87;;
3967;SDS011;9221;42.646;23.380;2024-02-21T08:11:54;27.03;;;9.37;;
3967;SDS011;9221;42.646;23.380;2024-02-21T08:14:20;22.03;;;9.13;;
3967;SDS011;9221;42.646;23.380;2024-02-21T08:16:46;33.57;;;10.93;;
3967;SDS011;9221;42.646;23.380;2024-02-21T08:19:12;31.53;;;10.10;;
3967;SDS011;9221;42.646;23.380;2024-02-21T08:21:38;23.13;;;8.80;;
3967;SDS011;9221;42.646;23.380;2024-02-21T08:24:03;28.83;;;11.00;;
3967;SDS011;9221;42.646;23.380;2024-02-21T08:26:29;23.37;;;9.23;;
3967;SDS011;9221;42.646;23.380;2024-02-21T08:28:55;25.80;;;9.87;;
3967;SDS011;9221;42.646;23.380;2024-02-21T08:31:24;28.40;;;9.93;;
3967;SDS011;9221;42.646;23.380;2024-02-21T08:33:56;26.60;;;9.80;;
3967;SDS011;9221;42.646;23.380;2024-02-21T08:36:31;22.83;;;9.33;;
3967;SDS011;9221;42.646;23.380;2024-02-21T08:38:58;24.20;;;9.03;;
3967;SDS011;9221;42.646;23.380;2024-02-21T08:41:24;25.73;;;10.10;;
3967;SDS011;9221;42.646;23.380;2024-02-21T08:43:50;24.47;;;9.17;;
3967;SDS011;9221;42.646;23.380;2024-02-21T08:46:16;24.20;;;8.60;;
3967;SDS011;9221;42.646;23.380;2024-02-21T08:48:43;23.60;;;8.93;;
3967;SDS011;9221;42.646;23.380;2024-02-21T08:51:10;30.57;;;10.17;;
3967;SDS011;9221;42.646;23.380;2024-02-21T08:53:36;26.43;;;9.27;;
3967;SDS011;9221;42.646;23.380;2024-02-21T08:56:03;26.27;;;8.33;;
3967;SDS011;9221;42.646;23.380;2024-02-21T08:58:29;24.87;;;7.97;;
3967;SDS011;9221;42.646;23.380;2024-02-21T09:00:54;22.70;;;7.50;;
3967;SDS011;9221;42.646;23.380;2024-02-21T09:03:20;23.50;;;8.40;;
3967;SDS011;9221;42.646;23.380;2024-02-21T09:05:45;22.90;;;8.50;;
3967;SDS011;9221;42.646;23.380;2024-02-21T09:08:12;21.97;;;8.90;;
3967;SDS011;9221;42.646;23.380;2024-02-21T09:10:38;22.10;;;8.63;;
3967;SDS011;9221;42.646;23.380;2024-02-21T09:13:04;25.00;;;9.10;;
3967;SDS011;9221;42.646;23.380;2024-02-21T09:15:30;19.50;;;7.60;;
3967;SDS011;9221;42.646;23.380;2024-02-21T09:17:56;18.57;;;7.37;;
3967;SDS011;9221;42.646;23.380;2024-02-21T09:20:22;30.57;;;8.90;;
3967;SDS011;9221;42.646;23.380;2024-02-21T09:22:47;19.33;;;7.80;;
3967;SDS011;9221;42.646;23.380;2024-02-21T09:25:13;25.77;;;9.43;;
3967;SDS011;9221;42.646;23.380;2024-02-21T09:27:38;26.33;;;8.90;;
3967;SDS011;9221;42.646;23.380;2024-02-21T09:30:05;20.73;;;7.60;;
3967;SDS011;9221;42.646;23.380;2024-02-21T09:32:31;25.73;;;8.40;;
3967;SDS011;9221;42.646;23.380;2024-02-21T09:34:58;21.17;;;7.80;;
3967;SDS011;9221;42.646;23.380;2024-02-21T09:37:23;23.90;;;8.90;;
3967;SDS011;9221;42.646;23.380;2024-02-21T09:39:49;26.30;;;9.37;;
3967;SDS011;9221;42.646;23.380;2024-02-21T09:42:16;22.50;;;8.83;;
3967;SDS011;9221;42.646;23.380;2024-02-21T09:44:46;25.77;;;8.83;;
3967;SDS011;9221;42.646;23.380;2024-02-21T09:47:16;28.90;;;9.07;;
3967;SDS011;9221;42.646;23.380;2024-02-21T09:49:44;32.47;;;10.03;;
3967;SDS011;9221;42.646;23.380;2024-02-21T09:52:10;24.67;;;8.70;;
3967;SDS011;9221;42.646;23.380;2024-02-21T09:54:38;27.43;;;9.33;;
3967;SDS011;9221;42.646;23.380;2024-02-21T09:57:05;24.57;;;8.30;;
3967;SDS011;9221;42.646;23.380;2024-02-21T09:59:31;23.13;;;9.07;;
3967;SDS011;9221;42.646;23.380;2024-02-21T10:01:58;21.10;;;8.40;;
3967;SDS011;9221;42.646;23.380;2024-02-21T10:04:26;22.47;;;8.27;;
3967;SDS011;9221;42.646;23.380;2024-02-21T10:06:56;16.80;;;6.67;;
3967;SDS011;9221;42.646;23.380;2024-02-21T10:09:25;23.27;;;8.40;;
3967;SDS011;9221;42.646;23.380;2024-02-21T10:11:56;26.50;;;7.10;;
3967;SDS011;9221;42.646;23.380;2024-02-21T10:14:32;16.70;;;7.03;;
3967;SDS011;9221;42.646;23.380;2024-02-21T10:16:58;16.90;;;6.90;;
3967;SDS011;9221;42.646;23.380;2024-02-21T10:19:27;18.03;;;6.93;;
3967;SDS011;9221;42.646;23.380;2024-02-21T10:22:06;16.10;;;6.57;;
3967;SDS011;9221;42.646;23.380;2024-02-21T10:24:36;14.43;;;6.30;;
3967;SDS011;9221;42.646;23.380;2024-02-21T10:27:08;15.80;;;7.07;;
3967;SDS011;9221;42.646;23.380;2024-02-21T10:29:36;24.60;;;8.20;;
3967;SDS011;9221;42.646;23.380;2024-02-21T10:34:34;20.40;;;7.03;;
3967;SDS011;9221;42.646;23.380;2024-02-21T10:37:03;21.70;;;8.33;;
3967;SDS011;9221;42.646;23.380;2024-02-21T10:39:34;22.10;;;7.40;;
3967;SDS011;9221;42.646;23.380;2024-02-21T10:42:02;19.70;;;7.77;;
3967;SDS011;9221;42.646;23.380;2024-02-21T10:44:29;18.27;;;6.90;;
3967;SDS011;9221;42.646;23.380;2024-02-21T10:46:56;12.50;;;5.27;;
3967;SDS011;9221;42.646;23.380;2024-02-21T10:49:23;14.03;;;6.23;;
3967;SDS011;9221;42.646;23.380;2024-02-21T10:54:59;11.20;;;5.30;;
3967;SDS011;9221;42.646;23.380;2024-02-21T10:57:29;16.13;;;6.67;;
3967;SDS011;9221;42.646;23.380;2024-02-21T10:59:56;13.70;;;5.90;;
3967;SDS011;9221;42.646;23.380;2024-02-21T11:02:24;19.93;;;6.43;;
3967;SDS011;9221;42.646;23.380;2024-02-21T11:04:51;16.67;;;6.90;;
3967;SDS011;9221;42.646;23.380;2024-02-21T11:07:19;15.60;;;6.43;;
3967;SDS011;9221;42.646;23.380;2024-02-21T11:09:51;15.97;;;6.33;;
3967;SDS011;9221;42.646;23.380;2024-02-21T11:12:20;12.33;;;5.50;;
3967;SDS011;9221;42.646;23.380;2024-02-21T11:14:46;15.70;;;5.00;;
3967;SDS011;9221;42.646;23.380;2024-02-21T11:17:19;12.40;;;5.30;;
3967;SDS011;9221;42.646;23.380;2024-02-21T11:19:51;13.17;;;5.20;;
3967;SDS011;9221;42.646;23.380;2024-02-21T11:22:17;11.73;;;5.03;;
3967;SDS011;9221;42.646;23.380;2024-02-21T11:24:44;14.40;;;5.53;;
3967;SDS011;9221;42.646;23.380;2024-02-21T11:27:14;10.90;;;4.90;;
3967;SDS011;9221;42.646;23.380;2024-02-21T11:29:47;11.50;;;5.03;;
3967;SDS011;9221;42.646;23.380;2024-02-21T11:32:16;13.67;;;5.90;;
3967;SDS011;9221;42.646;23.380;2024-02-21T11:37:29;11.87;;;4.30;;
3967;SDS011;9221;42.646;23.380;2024-02-21T11:39:55;8.90;;;3.83;;
3967;SDS011;9221;42.646;23.380;2024-02-21T11:42:21;10.50;;;4.40;;
3967;SDS011;9221;42.646;23.380;2024-02-21T11:44:47;12.90;;;4.57;;
3967;SDS011;9221;42.646;23.380;2024-02-21T11:47:13;13.00;;;4.90;;
3967;SDS011;9221;42.646;23.380;2024-02-21T11:49:43;10.27;;;3.97;;
3967;SDS011;9221;42.646;23.380;2024-02-21T11:52:11;7.47;;;3.53;;
3967;SDS011;9221;42.646;23.380;2024-02-21T11:54:37;8.60;;;3.37;;
3967;SDS011;9221;42.646;23.380;2024-02-21T11:57:02;12.90;;;4.23;;
3967;SDS011;9221;42.646;23.380;2024-02-21T11:59:31;9.13;;;3.80;;
3967;SDS011;9221;42.646;23.380;2024-02-21T12:01:57;9.03;;;4.00;;
3967;SDS011;9221;42.646;23.380;2024-02-21T12:04:24;8.87;;;3.33;;
3967;SDS011;9221;42.646;23.380;2024-02-21T12:06:50;10.03;;;3.33;;
3967;SDS011;9221;42.646;23.380;2024-02-21T12:09:18;9.60;;;3.53;;
3967;SDS011;9221;42.646;23.380;2024-02-21T12:11:44;7.40;;;3.17;;
3967;SDS011;9221;42.646;23.380;2024-02-21T12:14:11;10.10;;;4.07;;
3967;SDS011;9221;42.646;23.380;2024-02-21T12:16:41;8.20;;;3.53;;
3967;SDS011;9221;42.646;23.380;2024-02-21T12:19:09;10.43;;;3.60;;
3967;SDS011;9221;42.646;23.380;2024-02-21T12:21:35;9.00;;;3.60;;
3967;SDS011;9221;42.646;23.380;2024-02-21T12:24:13;6.83;;;3.53;;
3967;SDS011;9221;42.646;23.380;2024-02-21T12:26:42;10.93;;;4.43;;
3967;SDS011;9221;42.646;23.380;2024-02-21T12:29:08;10.93;;;3.80;;
3967;SDS011;9221;42.646;23.380;2024-02-21T12:31:36;12.23;;;4.50;;
3967;SDS011;9221;42.646;23.380;2024-02-21T12:34:03;7.43;;;3.47;;
3967;SDS011;9221;42.646;23.380;2024-02-21T12:36:29;12.10;;;4.50;;
3967;SDS011;9221;42.646;23.380;2024-02-21T12:38:58;9.40;;;4.23;;
3967;SDS011;9221;42.646;23.380;2024-02-21T12:41:24;11.70;;;4.07;;
3967;SDS011;9221;42.646;23.380;2024-02-21T12:43:51;10.27;;;4.50;;
3967;SDS011;9221;42.646;23.380;2024-02-21T12:46:17;14.33;;;4.53;;
3967;SDS011;9221;42.646;23.380;2024-02-21T12:48:43;14.23;;;4.37;;
3967;SDS011;9221;42.646;23.380;2024-02-21T12:51:08;16.53;;;4.63;;
3967;SDS011;9221;42.646;23.380;2024-02-21T12:53:34;8.40;;;3.73;;
3967;SDS011;9221;42.646;23.380;2024-02-21T12:55:59;8.30;;;3.80;;
3967;SDS011;9221;42.646;23.380;2024-02-21T12:58:25;8.87;;;3.80;;
3967;SDS011;9221;42.646;23.380;2024-02-21T13:00:51;9.63;;;4.10;;
3967;SDS011;9221;42.646;23.380;2024-02-21T13:03:17;9.20;;;3.90;;
3967;SDS011;9221;42.646;23.380;2024-02-21T13:05:42;9.10;;;3.50;;
3967;SDS011;9221;42.646;23.380;2024-02-21T13:08:08;8.60;;;3.50;;
3967;SDS011;9221;42.646;23.380;2024-02-21T13:10:34;7.87;;;3.60;;
3967;SDS011;9221;42.646;23.380;2024-02-21T13:13:00;8.47;;;3.13;;
3967;SDS011;9221;42.646;23.380;2024-02-21T13:15:27;8.07;;;3.30;;
3967;SDS011;9221;42.646;23.380;2024-02-21T13:17:53;11.00;;;4.27;;
3967;SDS011;9221;42.646;23.380;2024-02-21T13:20:20;10.87;;;5.20;;
3967;SDS011;9221;42.646;23.380;2024-02-21T13:22:46;12.93;;;5.10;;
3967;SDS011;9221;42.646;23.380;2024-02-21T13:25:11;13.73;;;5.33;;
3967;SDS011;9221;42.646;23.380;2024-02-21T13:27:40;15.23;;;5.50;;
3967;SDS011;9221;42.646;23.380;2024-02-21T13:30:06;15.03;;;5.00;;
3967;SDS011;9221;42.646;23.380;2024-02-21T13:32:34;12.83;;;5.17;;
3967;SDS011;9221;42.646;23.380;2024-02-21T13:34:59;14.50;;;6.00;;
3967;SDS011;9221;42.646;23.380;2024-02-21T13:37:26;22.83;;;7.17;;
3967;SDS011;9221;42.646;23.380;2024-02-21T13:39:52;14.27;;;5.30;;
3967;SDS011;9221;42.646;23.380;2024-02-21T13:42:18;19.37;;;5.97;;
3967;SDS011;9221;42.646;23.380;2024-02-21T13:44:45;12.67;;;5.20;;
3967;SDS011;9221;42.646;23.380;2024-02-21T13:47:11;15.17;;;5.57;;
3967;SDS011;9221;42.646;23.380;2024-02-21T13:49:39;13.27;;;4.87;;
3967;SDS011;9221;42.646;23.380;2024-02-21T13:52:05;15.13;;;5.70;;
3967;SDS011;9221;42.646;23.380;2024-02-21T13:54:30;10.27;;;4.30;;
3967;SDS011;9221;42.646;23.380;2024-02-21T13:56:56;13.70;;;4.80;;
3967;SDS011;9221;42.646;23.380;2024-02-21T13:59:21;12.07;;;4.73;;
3967;SDS011;9221;42.646;23.380;2024-02-21T14:01:47;10.70;;;4.43;;
3967;SDS011;9221;42.646;23.380;2024-02-21T14:04:12;10.47;;;4.37;;
3967;SDS011;9221;42.646;23.380;2024-02-21T14:06:39;12.60;;;5.00;;
3967;SDS011;9221;42.646;23.380;2024-02-21T14:09:11;13.10;;;5.03;;
3967;SDS011;9221;42.646;23.380;2024-02-21T14:11:37;10.73;;;4.40;;
3967;SDS011;9221;42.646;23.380;2024-02-21T14:14:03;12.80;;;4.87;;
3967;SDS011;9221;42.646;23.380;2024-02-21T14:16:29;11.37;;;4.60;;
3967;SDS011;9221;42.646;23.380;2024-02-21T14:18:55;19.00;;;5.50;;
3967;SDS011;9221;42.646;23.380;2024-02-21T14:21:21;14.27;;;5.47;;
3967;SDS011;9221;42.646;23.380;2024-02-21T14:23:46;12.67;;;4.80;;
3967;SDS011;9221;42.646;23.380;2024-02-21T14:26:12;9.77;;;4.63;;
3967;SDS011;9221;42.646;23.380;2024-02-21T14:28:39;16.50;;;5.07;;
3967;SDS011;9221;42.646;23.380;2024-02-21T14:31:06;12.13;;;4.83;;
3967;SDS011;9221;42.646;23.380;2024-02-21T14:33:37;12.53;;;4.30;;
3967;SDS011;9221;42.646;23.380;2024-02-21T14:36:02;8.60;;;3.63;;
3967;SDS011;9221;42.646;23.380;2024-02-21T14:38:28;10.80;;;3.87;;
3967;SDS011;9221;42.646;23.380;2024-02-21T14:40:54;9.07;;;4.10;;
3967;SDS011;9221;42.646;23.380;2024-02-21T14:43:20;8.90;;;3.93;;
3967;SDS011;9221;42.646;23.380;2024-02-21T14:45:48;13.23;;;4.57;;
3967;SDS011;9221;42.646;23.380;2024-02-21T14:48:14;11.03;;;4.67;;
3967;SDS011;9221;42.646;23.380;2024-02-21T14:50:40;10.50;;;4.20;;
3967;SDS011;9221;42.646;23.380;2024-02-21T14:53:07;11.43;;;4.27;;